Latest Weather Observations for Cape Borda

IDS60801

Issued at 2:31 pm CST Friday 28 August 2015 (issued every 30 minutes, with the page automatically refreshed every 10 minutes)

About weather observations | Map of weather stations | Latest weather observations for SA | Other Formats
Station Details ID: 022823 Name: CAPE BORDA Lat: -35.75 Lon: 136.60 Height: 158.0 m
Data from the previous 72 hours. | See also: Recent months at Cape Borda
Date/Time
CST
Temp
°C
App
Temp
°C
Dew
Point
Rel
Hum
%
Delta-T
°C
Wind Press
QNH
hPa
Press
MSL
hPa
Rain
since 9 am
mm
Dir
 
Spd
km/h
Gust
km/h
Spd
kts
Gust
kts
28/02:30pm 12.1 7.9 3.8 57 3.7 SSE 15 20 8 11 1028.3 - 0.0
28/02:00pm 12.4 9.1 2.6 51 4.3 S 9 17 5 9 1028.4 - 0.0
28/01:30pm 12.4 9.2 3.1 53 4.1 S 9 15 5 8 1028.6 - 0.0
28/01:00pm 12.5 9.0 3.5 54 4.0 SE 11 19 6 10 1028.9 - 0.0
28/12:30pm 12.0 7.7 3.4 55 3.8 SSE 15 20 8 11 1029.3 - 0.0
28/12:00pm 11.6 7.4 3.7 58 3.5 SE 15 22 8 12 1029.8 1030.0 0.0
28/11:30am 12.1 8.7 3.8 57 3.7 SE 11 19 6 10 1030.0 - 0.0
28/11:00am 12.0 7.7 3.1 54 3.9 SE 15 19 8 10 1030.2 - 0.0
28/10:30am 11.7 7.4 3.0 55 3.8 SSE 15 20 8 11 1030.4 - 0.0
28/10:00am 11.5 6.6 2.2 53 4.0 SSE 17 24 9 13 1030.3 - 0.0
28/09:30am 12.2 7.5 3.4 55 3.9 SSE 17 26 9 14 1030.3 - 0.0
28/09:00am 10.9 7.1 3.9 62 3.1 SE 13 19 7 10 1030.3 1030.5 0.0
28/08:30am 10.2 6.3 3.6 63 2.9 SSE 13 17 7 9 1030.2 - 0.0
28/08:00am 9.3 5.6 4.3 71 2.2 S 13 17 7 9 1030.0 - 0.0
28/07:30am 8.6 4.9 4.5 75 1.8 SSE 13 17 7 9 1029.8 - 0.0
28/07:00am 8.2 4.5 4.6 78 1.6 SSE 13 15 7 8 1029.6 - 0.0
28/06:30am 8.2 4.1 4.6 78 1.6 SSE 15 17 8 9 1029.5 - 0.0
28/06:00am 8.4 4.7 4.5 76 1.7 S 13 15 7 8 1029.4 1029.6 0.0
28/05:30am 8.6 4.1 4.3 74 1.9 SSE 17 20 9 11 1029.3 - 0.0
28/05:00am 8.5 4.5 4.9 78 1.6 S 15 20 8 11 1029.3 - 0.0
28/04:30am 8.3 4.3 4.9 79 1.5 SSE 15 19 8 10 1029.0 - 0.0
28/04:00am 7.7 4.0 4.7 81 1.3 SSE 13 17 7 9 1029.0 - 0.0
28/03:30am 8.1 4.9 4.9 80 1.4 S 11 13 6 7 1028.9 - 0.0
28/03:00am 8.7 5.1 4.9 77 1.7 S 13 19 7 10 1029.1 1029.3 0.0
28/02:30am 8.7 4.9 4.1 73 2.0 S 13 17 7 9 1029.2 - 0.0
28/02:00am 8.5 4.8 4.4 75 1.8 S 13 15 7 8 1029.3 - 0.0
28/01:30am 8.5 5.6 4.4 75 1.8 SSE 9 11 5 6 1029.4 - 0.0
28/01:00am 8.3 5.3 4.2 75 1.8 S 9 11 5 6 1029.2 - 0.0
28/12:30am 8.1 4.3 3.9 75 1.8 S 13 15 7 8 1029.0 - 0.0
28/12:00am 8.3 4.1 3.7 73 2.0 S 15 19 8 10 1029.0 1029.2 0.0
 
Date/Time
CST
Temp
°C
App
Temp
°C
Dew
Point
Rel
Hum
%
Delta-T
°C
Wind Press
QNH
hPa
Press
MSL
hPa
Rain
since 9 am
mm
Dir
 
Spd
km/h
Gust
km/h
Spd
kts
Gust
kts
27/11:30pm 7.5 3.7 4.0 78 1.5 S 13 15 7 8 1029.2 - 0.0
27/11:00pm 7.3 3.1 3.8 78 1.5 S 15 17 8 9 1029.2 - 0.0
27/10:30pm 8.2 4.4 3.8 74 1.9 S 13 19 7 10 1029.3 - 0.0
27/10:00pm 8.5 4.9 5.1 79 1.5 S 13 17 7 9 1029.6 - 0.0
27/09:30pm 8.3 4.8 5.6 83 1.2 S 13 19 7 10 1029.6 - 0.0
27/09:00pm 7.6 4.1 5.4 86 1.0 S 13 15 7 8 1029.5 1029.7 0.0
27/08:30pm 7.6 4.1 5.4 86 1.0 S 13 17 7 9 1029.4 - 0.0
27/08:00pm 7.9 3.7 5.7 86 1.0 S 17 22 9 12 1029.1 - 0.0
27/07:30pm 7.4 3.2 5.6 88 0.8 S 17 19 9 10 1028.8 - 0.0
27/07:00pm 7.9 4.1 5.9 87 0.9 S 15 19 8 10 1028.6 - 0.0
27/06:30pm 8.6 4.9 6.2 85 1.1 S 15 19 8 10 1028.4 - 0.0
27/06:00pm 9.3 5.6 6.5 83 1.3 S 15 24 8 13 1028.1 1028.3 0.0
27/05:30pm 9.9 5.9 6.7 80 1.5 S 17 26 9 14 1027.8 - 0.0
27/05:00pm 10.3 5.8 6.9 79 1.6 S 20 30 11 16 1027.5 - 0.0
27/04:30pm 11.1 5.9 7.4 78 1.8 S 24 33 13 18 1027.1 - 0.0
27/04:00pm 11.6 5.0 7.7 77 1.9 S 32 44 17 24 1026.8 - 0.0
27/03:30pm 11.5 5.4 6.7 72 2.3 S 28 41 15 22 1026.6 - 0.0
27/03:00pm 13.5 9.0 6.9 64 3.2 S 20 33 11 18 1026.4 1026.6 0.0
27/02:30pm 11.8 6.5 6.8 71 2.4 S 24 33 13 18 1026.3 - 0.0
27/02:00pm 12.1 6.4 6.7 69 2.6 S 26 37 14 20 1026.3 - 0.0
27/01:30pm 12.5 7.2 6.7 68 2.8 S 24 32 13 17 1026.5 - 0.0
27/01:00pm 11.8 6.1 6.5 70 2.5 S 26 35 14 19 1026.8 - 0.0
27/12:30pm 12.6 8.3 7.7 72 2.4 SSW 20 26 11 14 1027.0 - 0.0
27/12:00pm 11.6 6.2 6.5 71 2.4 S 24 33 13 18 1027.0 1027.3 0.0
27/11:30am 12.4 7.5 6.8 68 2.7 S 22 39 12 21 1027.2 - 0.0
27/11:00am 12.3 6.7 7.1 70 2.5 S 26 35 14 19 1027.2 - 0.0
27/10:30am 11.3 5.8 7.6 78 1.8 S 26 37 14 20 1027.2 - 0.0
27/10:00am 10.2 6.0 8.1 87 1.0 S 20 32 11 17 1027.2 - 0.0
27/09:30am 11.0 6.8 8.1 82 1.4 S 20 30 11 16 1027.0 - 0.0
27/09:00am 10.1 5.9 8.3 88 0.9 S 20 30 11 16 1026.8 1027.0 2.4
27/08:30am 9.5 5.2 7.8 89 0.8 S 20 28 11 15 1026.6 - 2.4
27/08:00am 8.4 2.8 7.3 93 0.5 S 26 33 14 18 1026.3 - 2.4
27/07:30am 7.8 3.3 6.9 94 0.4 S 20 26 11 14 1025.8 - 2.4
27/07:00am 7.9 3.5 7.3 96 0.3 S 20 26 11 14 1025.5 - 2.4
27/06:30am 7.8 3.4 7.2 96 0.3 S 20 28 11 15 1025.1 - 2.4
27/06:00am 7.7 3.1 6.6 93 0.5 SSW 20 26 11 14 1024.6 1024.8 2.4
27/05:30am 7.5 2.5 6.4 93 0.5 S 22 28 12 15 1024.5 - 2.4
27/05:00am 8.3 3.5 7.5 95 0.4 SSW 22 32 12 17 1024.2 - 2.2
27/04:30am 7.6 3.0 6.7 94 0.4 S 20 26 11 14 1024.0 - 2.2
27/04:00am 7.5 3.1 6.6 94 0.4 S 19 22 10 12 1023.9 - 2.2
27/03:30am 7.8 3.5 6.9 94 0.4 S 19 26 10 14 1024.0 - 2.2
27/03:00am 7.3 2.7 6.4 94 0.4 S 20 24 11 13 1024.1 1024.3 2.0
27/02:30am 7.1 3.8 6.2 94 0.4 S 13 15 7 8 1024.4 - 2.0
27/02:00am 6.5 2.7 5.8 95 0.3 S 15 17 8 9 1024.3 - 2.0
27/01:30am 7.2 3.1 6.3 94 0.4 S 17 20 9 11 1024.4 - 2.0
27/01:00am 7.0 3.3 6.1 94 0.4 S 15 19 8 10 1024.5 - 2.0
27/12:30am 7.0 2.9 6.1 94 0.4 S 17 19 9 10 1024.7 - 2.0
27/12:00am 6.9 2.7 5.8 93 0.5 S 17 20 9 11 1024.6 1024.8 2.0
 
Date/Time
CST
Temp
°C
App
Temp
°C
Dew
Point
Rel
Hum
%
Delta-T
°C
Wind Press
QNH
hPa
Press
MSL
hPa
Rain
since 9 am
mm
Dir
 
Spd
km/h
Gust
km/h
Spd
kts
Gust
kts
26/11:30pm 6.6 2.7 5.5 93 0.5 S 15 17 8 9 1024.6 - 1.8
26/11:00pm 6.4 2.1 5.3 93 0.5 SSE 17 19 9 10 1024.9 - 1.8
26/10:30pm 6.4 2.2 5.5 94 0.4 SSE 17 19 9 10 1025.1 - 1.8
26/10:00pm 6.7 2.9 5.8 94 0.4 SSE 15 19 8 10 1025.0 - 1.8
26/09:30pm 6.8 2.6 5.9 94 0.4 SSE 17 19 9 10 1025.0 - 1.8
26/09:00pm 7.1 3.8 6.2 94 0.4 SSE 13 15 7 8 1024.9 1025.1 1.8
26/08:30pm 7.2 3.5 6.3 94 0.4 SSE 15 17 8 9 1024.8 - 1.8
26/08:00pm 7.5 3.5 6.6 94 0.4 S 17 19 9 10 1024.8 - 1.8
26/07:30pm 7.3 3.6 6.4 94 0.4 SSE 15 17 8 9 1024.6 - 1.6
26/07:00pm 7.9 4.4 7.0 94 0.4 SSE 15 17 8 9 1024.5 - 1.6
26/06:30pm 7.8 4.1 6.5 91 0.6 S 15 17 8 9 1024.4 - 1.4
26/06:00pm 8.5 5.0 7.0 90 0.7 SSE 15 19 8 10 1024.3 1024.5 1.2
26/05:30pm 9.8 7.8 7.3 84 1.2 SE 7 9 4 5 1024.3 - 0.2
26/05:00pm 9.9 8.1 7.2 83 1.3 E 6 7 3 4 1023.9 - 0.2
26/04:30pm 10.0 7.7 7.5 84 1.2 ESE 9 17 5 9 1023.8 - 0.2
26/04:00pm 11.1 7.4 6.2 72 2.3 S 15 20 8 11 1023.7 - 0.2
26/03:30pm 10.7 8.0 5.5 70 2.4 S 9 17 5 9 1023.6 - 0.2
26/03:00pm 9.7 7.0 7.4 85 1.1 ESE 11 17 6 9 1023.7 1023.9 0.2
26/02:30pm 10.2 6.7 7.3 82 1.4 ESE 15 20 8 11 1023.8 - 0.2
26/02:00pm 10.3 7.3 7.6 83 1.3 SE 13 20 7 11 1023.8 - 0.2
26/01:30pm 12.0 8.3 4.5 60 3.4 SSE 13 22 7 12 1024.0 - 0.0
26/01:00pm 11.9 7.1 4.4 60 3.4 S 19 24 10 13 1024.4 - 0.0
26/12:30pm 11.3 6.6 5.0 65 2.9 S 19 24 10 13 1024.7 - 0.0
26/12:00pm 11.2 6.4 5.6 68 2.6 SSE 20 26 11 14 1025.0 1025.2 0.0
26/11:30am 10.9 5.9 6.4 74 2.1 S 22 28 12 15 1025.2 - 0.0
26/11:00am 11.5 7.2 5.2 65 2.9 SSE 17 24 9 13 1025.5 - 0.0
26/10:30am 11.5 7.0 5.9 68 2.6 SE 19 28 10 15 1025.6 - 0.0
26/10:00am 11.1 6.5 6.7 74 2.1 SSE 20 28 11 15 1025.7 - 0.0
26/09:30am 10.1 5.7 7.4 83 1.3 S 20 28 11 15 1025.9 - 0.0
26/09:00am 8.1 3.9 5.9 86 1.0 SSE 17 20 9 11 1025.9 1026.1 1.2
26/08:30am 7.4 3.9 5.6 88 0.8 SSE 13 15 7 8 1025.9 - 1.2
26/08:00am 6.3 1.9 4.9 91 0.6 SE 17 19 9 10 1025.7 - 1.2
26/07:30am 6.1 1.7 4.7 91 0.6 SE 17 19 9 10 1025.5 - 1.2
26/07:00am 6.2 2.2 5.1 93 0.5 SE 15 17 8 9 1025.5 - 1.2
26/06:30am 6.2 2.2 5.1 93 0.5 SE 15 17 8 9 1025.6 - 1.0
26/06:00am 5.9 1.8 4.5 91 0.6 SSE 15 17 8 9 1025.7 1025.9 1.0
26/05:30am 6.2 2.7 5.3 94 0.4 SSE 13 15 7 8 1025.7 - 1.0
26/05:00am 6.1 2.5 5.2 94 0.4 SSE 13 13 7 7 1025.8 - 1.0
26/04:30am 6.1 2.6 5.4 95 0.3 SSE 13 13 7 7 1025.8 - 1.0
26/04:00am 6.9 4.6 5.8 93 0.5 SE 7 9 4 5 1025.8 - 1.0
26/03:30am 6.6 3.5 5.7 94 0.4 SE 11 11 6 6 1025.9 - 1.0
26/03:00am 7.2 3.5 6.1 93 0.5 SE 15 19 8 10 1026.0 1026.2 1.0
26/02:30am 6.5 1.7 4.9 89 0.7 SE 19 22 10 12 1026.2 - 1.0
26/02:00am 6.2 1.8 4.6 89 0.7 SE 17 20 9 11 1026.4 - 1.0
26/01:30am 6.4 1.5 5.0 91 0.6 SSE 20 24 11 13 1026.6 - 1.0
26/01:00am 6.4 1.5 5.3 93 0.5 SSE 20 22 11 12 1026.8 - 1.0
26/12:30am 7.0 2.2 5.7 91 0.6 SSE 20 24 11 13 1027.2 - 1.0
26/12:00am 7.1 2.5 5.5 89 0.7 SSE 19 20 10 11 1027.2 1027.5 1.0
 
Date/Time
CST
Temp
°C
App
Temp
°C
Dew
Point
Rel
Hum
%
Delta-T
°C
Wind Press
QNH
hPa
Press
MSL
hPa
Rain
since 9 am
mm
Dir
 
Spd
km/h
Gust
km/h
Spd
kts
Gust
kts
25/11:30pm 7.0 1.5 5.7 91 0.6 SE 24 30 13 16 1027.5 - 1.0
25/11:00pm 6.9 2.1 5.8 93 0.5 SSE 20 28 11 15 1027.6 - 1.0
25/10:30pm 7.3 3.2 6.4 94 0.4 SSE 17 20 9 11 1027.8 - 0.8
25/10:00pm 7.3 2.6 6.0 91 0.6 SE 20 24 11 13 1028.1 - 0.6
25/09:30pm 7.5 2.0 5.7 88 0.8 SE 24 35 13 19 1027.9 - 0.6
25/09:00pm 7.4 2.3 6.1 91 0.6 SE 22 33 12 18 1027.9 1028.1 0.6
25/08:30pm 7.5 2.1 6.4 93 0.5 SSE 24 32 13 17 1027.9 - 0.6
25/08:00pm 7.5 3.1 6.6 94 0.4 SSE 19 26 10 14 1028.0 - 0.6
25/07:30pm 7.8 3.4 7.2 96 0.3 SSE 20 28 11 15 1028.0 - 0.4
25/07:00pm 7.6 2.6 6.5 93 0.5 SSE 22 30 12 16 1027.9 - 0.4
25/06:30pm 8.1 4.1 6.8 91 0.6 SSE 17 26 9 14 1027.7 - 0.4
25/06:00pm 8.3 4.9 6.1 86 1.0 SE 13 20 7 11 1027.6 1027.8 0.4
25/05:30pm 9.0 4.2 5.5 79 1.6 SSE 20 30 11 16 1027.2 - 0.4
25/05:00pm 9.3 4.7 6.7 84 1.2 SSE 20 28 11 15 1027.2 - 0.4
25/04:30pm 10.3 6.3 6.7 78 1.7 SSE 17 26 9 14 1027.2 - 0.4
25/04:00pm 10.2 5.9 6.8 79 1.6 S 19 37 10 20 1027.2 - 0.4
25/03:30pm 10.0 5.2 7.3 83 1.3 S 22 30 12 16 1027.3 - 0.4
25/03:00pm 9.7 5.0 7.8 88 0.9 SSE 22 33 12 18 1027.6 1027.8 0.4
25/02:33pm 10.9 4.6 5.7 70 2.4 S 28 50 15 27 1027.6 - 0.4

Other Formats:

Comma delimited format used in spreadsheet applications
http://www.bom.gov.au/fwo/IDS60801/IDS60801.95805.axf

JavaScript Object Notation format (JSON) in row-major order
http://www.bom.gov.au/fwo/IDS60801/IDS60801.95805.json